Airfield :
LOGIN :

Register | Disclaimer

   EN    FR    IT 

 










Legend :    VFR   Marginal VFR   IFR   Intensive IFR   Very Intensive IFR
Visi :
Ceiling :
>= 8 km
>= 3000ft
5 to 8 km
1000 to 3000 ft
1500m to 5 km
500 to 1000 ft
800 to 1500m
200 to 500 ft
< 800m
< 200 ft
Symbols :   Thunderstorms  Fog  Heavy snow  Heavy precipitations  Wind > 20 kt
SIGMETs :     Misc.  Thunderstorms  Icing  Turbulence  Mountain Waves  Volcanic Ashes






- Airport Elevation : 278 ft
- IATA code : RJK


LDRI - Rijeka

CURRENT METAR :
  • 070930Z 12007KT 9999 FEW032 OVC044 16/12 Q1010

EXPIRED METARs :
  • 070900Z 12007KT 9999 -RA FEW021 SCT032 OVC044 16/12 Q1010
  • 070830Z 14007KT 9999 FEW021 SCT032 OVC044 16/12 Q1010
  • 070800Z 14007KT 9999 FEW021 SCT032 BKN044 16/12 Q1010
  • 070730Z 14008KT 9999 FEW021 SCT032 BKN040 16/12 Q1010
  • 070700Z 15008KT 9999 FEW021 SCT032 BKN040 16/12 Q1010

TAF TAF LDRI
Valid from the 07 at 06:00 until the 08 at 06:00 UTC


070525Z 0706/0806 16009KT 9999 SCT040 TX18/0712Z TN12/0803Z
PROB30
TEMPO 0715/0718 -TSRA FEW035CB
BECMG 0718/0720 06015KT
PROB30
TEMPO 0718/0721 06018G30KT 4000 TSRA SCT035 FEW050CB
TEMPO 0722/0804 VRB08KT
BECMG 0804/0806 06005KT



MET'MAP, your aeronautical weather chart ! - Copyright ORBIFLY December 2007 - Disclaimer

ORBIFLY MET'MAP TEAM :

Programming & Development : Alexandra Zaïnal
Concept & original design : Baudouin d'Aumeries
Assistance for programming : Marc-Olivier Méhu
Technical & hardware support : Manuel Goepfert

Contact : metmap@orbifly.com




SOURCES & CREDITS :

   NOAA